Time;durP1;ratioP1;P1;durP2;ratioP2;P2;SDS_P1;SDS_P2;PMS_P1;PMS_P2;Temp;Humidity;BMP_temperature;BMP_pressure;BME280_temperature;BME280_humidity;BME280_pressure;Samples;Min_cycle;Max_cycle;Signal;HPM_P1;HPM_P2
2023/07/14 00:00:31;;;;;;;4.97;1.80;;;;;;;24.16;49.12;101714.97;4985364;28;20044;-72
2023/07/14 00:02:58;;;;;;;3.67;1.95;;;;;;;24.16;48.94;101701.66;4985749;28;20026;-73
2023/07/14 00:05:28;;;;;;;3.38;1.80;;;;;;;24.15;49.27;101694.63;4986382;28;20054;-72
2023/07/14 00:07:54;;;;;;;6.90;1.95;;;;;;;24.14;48.83;101704.47;4985279;28;20436;-73
2023/07/14 00:10:31;;;;;;;3.97;1.90;;;;;;;24.15;49.09;101708.81;4984357;28;20136;-72
2023/07/14 00:12:59;;;;;;;4.63;2.28;;;;;;;24.15;49.22;101698.16;4985971;28;20061;-72
2023/07/14 00:15:25;;;;;;;4.72;1.95;;;;;;;24.15;49.25;101699.97;4985457;28;20113;-75
2023/07/14 00:17:52;;;;;;;3.88;2.00;;;;;;;24.14;49.12;101696.47;4984383;28;20117;-72
2023/07/14 00:20:24;;;;;;;5.68;2.10;;;;;;;24.14;48.74;101690.31;4984806;28;20105;-75
2023/07/14 00:22:51;;;;;;;4.57;1.95;;;;;;;24.15;48.79;101691.97;4984596;28;20421;-75
2023/07/14 00:25:17;;;;;;;3.30;1.85;;;;;;;24.13;48.74;101681.47;4985540;28;20026;-74
2023/07/14 00:27:43;;;;;;;3.78;2.00;;;;;;;24.12;48.74;101687.78;4984286;28;20026;-73
2023/07/14 00:30:19;;;;;;;4.78;2.22;;;;;;;24.12;49.09;101692.28;4983262;28;20132;-72
2023/07/14 00:32:46;;;;;;;3.97;1.70;;;;;;;24.11;49.11;101691.44;4980767;28;20034;-74
2023/07/14 00:35:26;;;;;;;3.90;1.90;;;;;;;24.11;49.20;101687.94;4988411;28;20105;-72
2023/07/14 00:37:55;;;;;;;4.47;2.00;;;;;;;24.09;49.09;101682.75;4971430;28;20462;-74
2023/07/14 00:40:26;;;;;;;4.45;1.90;;;;;;;24.11;49.16;101687.94;4987780;28;20018;-74
2023/07/14 00:42:55;;;;;;;4.63;2.00;;;;;;;24.12;48.65;101692.28;4987148;28;20034;-73
2023/07/14 00:45:22;;;;;;;5.63;1.92;;;;;;;24.10;48.66;101684.44;4987600;28;20466;-73
2023/07/14 00:47:52;;;;;;;4.13;1.90;;;;;;;24.08;48.97;101671.28;4988977;28;20053;-75
2023/07/14 00:50:30;;;;;;;3.85;2.00;;;;;;;24.08;48.83;101675.72;4988936;28;20121;-74
2023/07/14 00:52:59;;;;;;;4.32;1.88;;;;;;;24.08;49.15;101679.25;4989130;28;20071;-74
2023/07/14 00:55:29;;;;;;;3.50;1.77;;;;;;;24.10;48.79;101679.13;4989453;28;20117;-73
2023/07/14 00:57:56;;;;;;;3.97;1.92;;;;;;;24.11;48.75;101677.28;4989037;28;20053;-78
2023/07/14 01:00:32;;;;;;;3.83;1.98;;;;;;;24.08;48.90;101684.59;4987972;28;20066;-73
2023/07/14 01:02:58;;;;;;;4.57;2.00;;;;;;;24.09;49.21;101675.59;4988184;28;20386;-73
2023/07/14 01:05:24;;;;;;;3.83;2.05;;;;;;;24.07;49.24;101680.22;4988959;28;20471;-73
2023/07/14 01:07:51;;;;;;;3.30;1.70;;;;;;;24.07;48.88;101676.75;4987869;28;20049;-75
2023/07/14 01:10:21;;;;;;;4.20;2.15;;;;;;;24.06;49.20;101681.22;4989336;28;20092;-75
2023/07/14 01:12:52;;;;;;;4.45;2.28;;;;;;;24.07;49.20;101674.91;4988376;28;20030;-73
2023/07/14 01:15:18;;;;;;;3.65;1.70;;;;;;;24.06;49.24;101669.72;4987861;28;20038;-76
2023/07/14 01:17:46;;;;;;;3.63;2.00;;;;;;;24.08;49.28;101668.59;4989223;28;20045;-73
2023/07/14 01:20:12;;;;;;;3.50;2.08;;;;;;;24.07;49.00;101671.41;4988458;28;20056;-76
2023/07/14 01:23:02;;;;;;;3.90;1.85;;;;;;;24.06;48.72;101667.88;4989107;28;20424;-73
2023/07/14 01:25:36;;;;;;;4.85;1.98;;;;;;;24.06;48.92;101667.88;4988879;28;20537;-73
2023/07/14 01:28:04;;;;;;;3.92;1.98;;;;;;;24.06;49.20;101664.41;4988293;28;20034;-73
2023/07/14 01:30:32;;;;;;;4.40;1.95;;;;;;;24.07;48.96;101666.09;4988850;28;20129;-73
2023/07/14 01:32:58;;;;;;;4.40;2.13;;;;;;;24.05;48.88;101665.38;4988817;28;20034;-77
2023/07/14 01:35:30;;;;;;;3.80;2.03;;;;;;;24.03;48.75;101662.84;4989953;28;20410;-73
2023/07/14 01:37:56;;;;;;;4.50;2.05;;;;;;;24.03;48.87;101654.88;4989336;28;20058;-73
2023/07/14 01:40:21;;;;;;;3.67;1.85;;;;;;;24.05;49.16;101663.56;4989382;28;20038;-73
2023/07/14 01:42:59;;;;;;;6.15;2.20;;;;;;;24.03;48.99;101656.69;4986770;28;20027;-73
2023/07/14 01:45:28;;;;;;;4.15;2.05;;;;;;;24.04;49.29;101650.41;4989367;28;20451;-72
2023/07/14 01:47:57;;;;;;;4.30;2.25;;;;;;;24.03;49.39;101648.72;4988935;28;20026;-73
2023/07/14 01:50:31;;;;;;;3.75;1.80;;;;;;;24.03;48.87;101652.19;4987269;28;20038;-73
2023/07/14 01:53:04;;;;;;;5.78;2.60;;;;;;;24.03;48.97;101652.19;4985668;28;20527;-78
2023/07/14 01:55:34;;;;;;;3.85;2.10;;;;;;;24.03;49.19;101649.53;4987233;28;20039;-73
2023/07/14 01:58:05;;;;;;;3.75;2.10;;;;;;;24.03;49.23;101654.88;4986884;28;20045;-73
2023/07/14 02:00:32;;;;;;;3.50;1.90;;;;;;;24.03;49.01;101649.53;4987031;28;20034;-73
2023/07/14 02:02:59;;;;;;;4.75;2.20;;;;;;;24.04;48.95;101648.56;4985948;28;20091;-73
2023/07/14 02:05:34;;;;;;;4.18;2.10;;;;;;;24.03;48.99;101648.72;4986598;28;20514;-73
2023/07/14 02:08:05;;;;;;;4.57;2.10;;;;;;;24.03;49.09;101646.88;4987307;28;20471;-77
2023/07/14 02:10:32;;;;;;;3.85;1.90;;;;;;;24.02;49.40;101641.69;4986031;28;20050;-73
2023/07/14 02:12:59;;;;;;;4.60;2.20;;;;;;;24.04;49.12;101645.06;4987464;28;20033;-78
2023/07/14 02:15:31;;;;;;;3.92;2.08;;;;;;;24.00;49.07;101649.00;4986657;28;20030;-80
2023/07/14 02:17:57;;;;;;;4.97;2.17;;;;;;;24.00;48.69;101636.50;4985504;28;20073;-74
2023/07/14 02:20:36;;;;;;;4.55;2.05;;;;;;;24.02;49.12;101639.91;4984828;28;20039;-74
2023/07/14 02:23:04;;;;;;;4.40;2.10;;;;;;;24.02;49.01;101633.72;4987147;28;20042;-77
2023/07/14 02:25:38;;;;;;;4.00;2.00;;;;;;;24.01;48.97;101630.22;4985098;28;20378;-73
2023/07/14 02:28:03;;;;;;;4.20;2.28;;;;;;;24.01;48.98;101632.88;4984887;28;20029;-74
2023/07/14 02:30:32;;;;;;;3.85;2.25;;;;;;;23.97;48.80;101625.31;4985176;28;20050;-77
2023/07/14 02:33:16;;;;;;;4.82;2.42;;;;;;;23.99;49.23;101636.66;4987437;28;20030;-74
2023/07/14 02:35:48;;;;;;;4.78;2.30;;;;;;;23.99;49.05;101632.19;4980418;28;20033;-74
2023/07/14 02:38:16;;;;;;;4.55;2.17;;;;;;;24.00;48.69;101630.34;4987478;28;20041;-75
2023/07/14 02:40:45;;;;;;;3.65;2.13;;;;;;;24.00;48.61;101631.19;4988507;28;20105;-74
2023/07/14 02:43:15;;;;;;;4.75;2.10;;;;;;;23.98;48.52;101635.84;4988156;28;20038;-80
2023/07/14 02:46:08;;;;;;;4.22;2.30;;;;;;;23.99;49.01;101634.84;4979823;28;20062;-78
2023/07/14 02:48:46;;;;;;;4.03;2.40;;;;;;;23.97;48.97;101639.47;4986765;28;20045;-74
2023/07/14 02:51:12;;;;;;;4.03;2.10;;;;;;;23.98;48.85;101635.84;4987654;28;20685;-76
2023/07/14 02:53:38;;;;;;;4.18;2.20;;;;;;;24.00;48.42;101638.34;4986556;28;20041;-80
2023/07/14 02:56:04;;;;;;;4.22;2.25;;;;;;;23.98;48.67;101630.50;4987167;28;20104;-80
2023/07/14 02:58:30;;;;;;;4.72;2.35;;;;;;;23.96;48.72;101629.81;4987447;28;20034;-78
2023/07/14 03:00:56;;;;;;;4.10;2.33;;;;;;;23.96;48.40;101620.97;4986784;28;20026;-74
2023/07/14 03:03:21;;;;;;;4.43;2.17;;;;;;;23.97;48.47;101628.81;4986845;28;20038;-74
2023/07/14 03:05:47;;;;;;;4.50;2.30;;;;;;;23.98;48.58;101635.00;4987344;28;20026;-74
2023/07/14 03:08:15;;;;;;;4.45;2.17;;;;;;;23.96;48.85;101634.28;4987241;28;20390;-75
2023/07/14 03:10:43;;;;;;;4.50;2.35;;;;;;;23.97;48.64;101633.31;4986783;28;20474;-77
2023/07/14 03:13:09;;;;;;;3.85;2.03;;;;;;;23.96;48.57;101629.81;4987010;28;20569;-74
2023/07/14 03:15:34;;;;;;;4.75;2.33;;;;;;;23.94;48.42;101623.81;4987209;28;20029;-82
2023/07/14 03:18:00;;;;;;;4.40;2.20;;;;;;;23.97;48.53;101625.31;4986728;28;20113;-81
2023/07/14 03:20:26;;;;;;;5.38;2.35;;;;;;;23.96;48.55;101619.16;4986164;28;20037;-78
2023/07/14 03:22:51;;;;;;;3.70;2.00;;;;;;;23.96;48.86;101618.31;4987150;28;20034;-74
2023/07/14 03:25:16;;;;;;;4.10;2.20;;;;;;;23.93;48.72;101622.13;4987778;28;20355;-74
2023/07/14 03:27:43;;;;;;;4.55;2.60;;;;;;;23.94;48.76;101617.63;4987066;28;20463;-74
2023/07/14 03:30:10;;;;;;;5.15;2.20;;;;;;;23.94;48.55;101609.63;4985310;28;20121;-74
2023/07/14 03:32:35;;;;;;;3.83;2.00;;;;;;;23.93;48.67;101610.66;4986772;28;21247;-76
2023/07/14 03:35:01;;;;;;;3.45;2.00;;;;;;;23.94;48.93;101615.81;4986620;28;20383;-74
2023/07/14 03:37:26;;;;;;;3.92;2.17;;;;;;;23.94;48.48;101607.84;4986969;28;20459;-76
2023/07/14 03:39:52;;;;;;;3.95;2.20;;;;;;;23.94;48.43;101609.63;4987176;28;20034;-74
2023/07/14 03:42:17;;;;;;;4.00;2.15;;;;;;;23.92;48.70;101606.28;4987884;28;20026;-73
2023/07/14 03:44:42;;;;;;;4.13;2.33;;;;;;;23.92;48.69;101609.78;4986488;28;20512;-74
2023/07/14 03:47:08;;;;;;;5.13;2.38;;;;;;;23.90;48.90;101599.28;4986631;28;20080;-74
2023/07/14 03:49:33;;;;;;;3.38;1.88;;;;;;;23.93;48.99;101597.34;4986589;28;20152;-74
2023/07/14 03:51:59;;;;;;;5.45;2.50;;;;;;;23.92;48.44;101603.63;4987393;28;20030;-74
2023/07/14 03:54:25;;;;;;;3.80;2.17;;;;;;;23.90;48.35;101593.13;4986893;28;20498;-74
2023/07/14 03:56:52;;;;;;;4.03;2.28;;;;;;;23.92;48.45;101600.97;4986877;28;20113;-77
2023/07/14 03:59:17;;;;;;;5.00;2.28;;;;;;;23.92;48.57;101595.66;4986219;28;20470;-73
2023/07/14 04:01:43;;;;;;;4.18;2.10;;;;;;;23.89;48.59;101592.31;4987192;28;20038;-73
2023/07/14 04:04:08;;;;;;;5.28;2.35;;;;;;;23.90;48.81;101593.13;4986617;28;20049;-79
2023/07/14 04:06:34;;;;;;;4.22;2.00;;;;;;;23.91;48.84;101589.50;4986729;28;20072;-77
2023/07/14 04:09:01;;;;;;;4.25;1.88;;;;;;;23.90;48.44;101591.28;4986933;28;20043;-74
2023/07/14 04:11:26;;;;;;;4.57;2.00;;;;;;;23.90;48.61;101595.78;4985790;28;20164;-76
2023/07/14 04:13:52;;;;;;;3.40;1.90;;;;;;;23.89;48.81;101597.63;4986842;28;20125;-73
2023/07/14 04:16:18;;;;;;;3.60;1.80;;;;;;;23.88;48.60;101590.59;4986039;28;20037;-76
2023/07/14 04:18:43;;;;;;;3.40;1.90;;;;;;;23.89;48.45;101589.63;4986302;28;20089;-73
2023/07/14 04:21:11;;;;;;;3.63;1.90;;;;;;;23.88;48.54;101589.78;4986529;28;20623;-74
2023/07/14 04:23:37;;;;;;;4.97;2.08;;;;;;;23.89;48.44;101588.78;4969932;28;20065;-73
2023/07/14 04:26:03;;;;;;;4.75;2.05;;;;;;;23.89;48.33;101591.44;4983088;28;20065;-75
2023/07/14 04:28:28;;;;;;;4.32;2.08;;;;;;;23.88;48.51;101593.28;4984809;28;20467;-74
2023/07/14 04:30:55;;;;;;;6.22;2.33;;;;;;;23.88;48.82;101601.25;4982770;28;20093;-74
2023/07/14 04:33:23;;;;;;;4.78;1.88;;;;;;;23.87;48.63;101580.09;4982497;28;20076;-73
2023/07/14 04:35:53;;;;;;;3.70;1.90;;;;;;;23.87;48.78;101586.25;4990592;28;20109;-74
2023/07/14 04:38:19;;;;;;;4.22;2.00;;;;;;;23.82;48.53;101574.34;4984631;28;20026;-75
2023/07/14 04:40:44;;;;;;;4.68;2.10;;;;;;;23.86;48.55;101583.75;4985807;28;20038;-77
2023/07/14 04:43:11;;;;;;;4.47;2.08;;;;;;;23.85;48.87;101580.25;4985807;28;20045;-74
2023/07/14 04:45:41;;;;;;;4.35;2.30;;;;;;;23.85;48.71;101587.41;4985475;28;20026;-76
2023/07/14 04:48:13;;;;;;;3.42;1.80;;;;;;;23.86;48.52;101583.75;4986158;28;20042;-74
2023/07/14 04:50:39;;;;;;;3.47;1.80;;;;;;;23.85;48.87;101584.75;4978402;28;20037;-74
2023/07/14 04:53:06;;;;;;;4.10;1.83;;;;;;;23.86;48.74;101595.25;4986085;28;20038;-72
2023/07/14 04:55:40;;;;;;;4.50;2.10;;;;;;;23.85;48.86;101596.22;4986537;28;20066;-77
2023/07/14 04:58:06;;;;;;;5.13;1.95;;;;;;;23.86;48.45;101602.38;4985946;28;20026;-75
2023/07/14 05:00:31;;;;;;;4.63;1.90;;;;;;;23.85;48.32;101598.88;4986024;28;20133;-76
2023/07/14 05:02:57;;;;;;;4.95;2.10;;;;;;;23.86;48.85;101594.38;4985531;28;20457;-78
2023/07/14 05:05:24;;;;;;;4.97;2.10;;;;;;;23.85;48.40;101596.22;4985940;28;20026;-78
2023/07/14 05:07:50;;;;;;;4.80;2.13;;;;;;;23.83;48.42;101591.97;4986726;28;20038;-76
2023/07/14 05:10:17;;;;;;;4.50;1.85;;;;;;;23.85;48.58;101584.75;4985933;28;20062;-74
2023/07/14 05:12:42;;;;;;;3.83;1.90;;;;;;;23.85;48.35;101590.06;4986632;28;20034;-79
2023/07/14 05:15:10;;;;;;;3.88;2.00;;;;;;;23.84;48.67;101583.06;4986448;28;20057;-75
2023/07/14 05:17:41;;;;;;;3.88;1.92;;;;;;;23.84;48.88;101583.06;4988792;28;20045;-75
2023/07/14 05:20:12;;;;;;;3.65;2.00;;;;;;;23.84;48.73;101572.41;4989037;28;20049;-76
2023/07/14 05:22:38;;;;;;;4.35;2.00;;;;;;;23.83;48.74;101576.91;4989744;28;20097;-77
2023/07/14 05:25:04;;;;;;;3.80;1.80;;;;;;;23.83;48.59;101573.34;4988882;28;20022;-78
2023/07/14 05:27:30;;;;;;;3.58;1.90;;;;;;;23.83;48.43;101576.00;4989660;28;20481;-74
2023/07/14 05:29:55;;;;;;;4.20;1.98;;;;;;;23.83;48.67;101578.66;4989485;28;20490;-76
2023/07/14 05:32:22;;;;;;;5.93;1.90;;;;;;;23.84;48.45;101588.38;4989319;28;20085;-74
2023/07/14 05:34:48;;;;;;;3.38;1.63;;;;;;;23.82;48.47;101574.34;4989301;28;20663;-74
2023/07/14 05:37:15;;;;;;;4.10;1.88;;;;;;;23.81;48.70;101573.50;4989346;28;20034;-76
2023/07/14 05:39:41;;;;;;;4.38;2.00;;;;;;;23.82;48.47;101588.50;4988547;28;20356;-74
2023/07/14 05:42:07;;;;;;;3.45;1.63;;;;;;;23.83;48.81;101571.59;4989477;28;20116;-74
2023/07/14 05:44:32;;;;;;;4.75;1.88;;;;;;;23.82;48.47;101577.84;4989600;28;20026;-74
2023/07/14 05:46:57;;;;;;;4.78;2.20;;;;;;;23.82;48.53;101577.84;4989226;28;20065;-75
2023/07/14 05:49:23;;;;;;;3.55;1.95;;;;;;;23.82;48.69;101580.50;4989677;28;20048;-79
2023/07/14 05:51:50;;;;;;;3.50;1.80;;;;;;;23.81;48.71;101576.16;4989261;28;20410;-74
2023/07/14 05:54:15;;;;;;;3.42;1.75;;;;;;;23.81;48.94;101573.50;4987599;28;20403;-74
2023/07/14 05:56:41;;;;;;;4.28;2.03;;;;;;;23.81;48.29;101580.66;4987966;28;20022;-75
2023/07/14 05:59:07;;;;;;;5.22;1.90;;;;;;;23.80;48.48;101574.50;4988859;28;20053;-78
2023/07/14 06:01:32;;;;;;;3.65;1.65;;;;;;;23.79;48.43;101572.81;4988425;28;20485;-76
2023/07/14 06:03:58;;;;;;;4.20;1.80;;;;;;;23.79;48.64;101574.63;4988698;28;20050;-74
2023/07/14 06:06:23;;;;;;;4.25;1.88;;;;;;;23.80;48.30;101574.50;4989009;28;20113;-74
2023/07/14 06:08:49;;;;;;;3.70;1.77;;;;;;;23.81;48.88;101586.81;4987671;28;20033;-75
2023/07/14 06:11:15;;;;;;;3.50;2.00;;;;;;;23.80;48.89;101581.63;4989170;28;20414;-74
2023/07/14 06:13:40;;;;;;;4.05;2.17;;;;;;;23.81;48.86;101583.31;4988493;28;20046;-74
2023/07/14 06:16:06;;;;;;;3.92;1.90;;;;;;;23.80;48.53;101579.81;4988670;28;20073;-77
2023/07/14 06:18:31;;;;;;;4.60;2.08;;;;;;;23.78;48.42;101576.44;4988486;28;20034;-73
2023/07/14 06:20:57;;;;;;;3.83;1.80;;;;;;;23.81;48.71;101581.47;4987775;28;20157;-74
2023/07/14 06:23:22;;;;;;;3.97;1.73;;;;;;;23.79;48.81;101575.47;4988170;28;20475;-73
2023/07/14 06:25:48;;;;;;;4.90;1.95;;;;;;;23.80;48.39;101574.50;4986308;28;20030;-74
2023/07/14 06:28:14;;;;;;;3.95;1.80;;;;;;;23.78;48.91;101576.44;4985664;28;20041;-73
2023/07/14 06:30:39;;;;;;;4.88;1.90;;;;;;;23.79;48.67;101578.13;4931383;28;20053;-79
2023/07/14 06:33:05;;;;;;;3.75;1.88;;;;;;;23.79;48.92;101572.81;4982093;28;20129;-74
2023/07/14 06:35:31;;;;;;;3.97;1.90;;;;;;;23.78;48.77;101573.78;4986030;28;20033;-75
2023/07/14 06:37:57;;;;;;;4.28;1.80;;;;;;;23.78;48.81;101575.63;4985510;28;20022;-81
2023/07/14 06:40:24;;;;;;;4.13;1.85;;;;;;;23.79;48.50;101570.16;4987367;28;20026;-77
2023/07/14 06:42:49;;;;;;;5.70;2.60;;;;;;;23.81;47.95;101572.66;4984926;28;20062;-77
2023/07/14 06:45:15;;;;;;;7.00;2.70;;;;;;;23.82;48.05;101571.69;4987638;28;20064;-77
2023/07/14 06:47:40;;;;;;;6.57;2.55;;;;;;;23.76;48.38;101564.28;4987980;28;20038;-78
2023/07/14 06:50:07;;;;;;;7.05;2.70;;;;;;;23.71;48.15;101567.38;4988706;28;20065;-78
2023/07/14 06:52:36;;;;;;;4.90;2.20;;;;;;;23.64;47.50;101566.25;4987616;28;20446;-76
2023/07/14 06:55:01;;;;;;;6.80;2.40;;;;;;;23.61;47.87;101566.56;4987273;28;20447;-76
2023/07/14 06:57:26;;;;;;;5.35;2.40;;;;;;;23.56;47.61;101561.69;4987514;28;20109;-77
2023/07/14 06:59:52;;;;;;;5.43;2.47;;;;;;;23.49;47.56;101556.06;4964749;28;20026;-75
2023/07/14 07:02:17;;;;;;;6.50;3.00;;;;;;;23.49;47.92;101555.25;4984701;28;20076;-80
2023/07/14 07:04:43;;;;;;;7.53;2.90;;;;;;;23.46;48.14;101560.84;4987440;28;20026;-76
2023/07/14 07:07:09;;;;;;;6.28;2.50;;;;;;;23.40;48.09;101567.59;4988145;28;20030;-77
2023/07/14 07:09:34;;;;;;;6.75;2.25;;;;;;;23.36;47.93;101553.72;4988022;28;20050;-80
2023/07/14 07:12:00;;;;;;;7.15;2.22;;;;;;;23.35;48.62;101551.19;4988059;28;20037;-76
2023/07/14 07:14:25;;;;;;;5.82;2.70;;;;;;;23.32;48.40;101555.00;4987058;28;20046;-75
2023/07/14 07:16:51;;;;;;;6.60;2.55;;;;;;;23.29;48.87;101544.66;4986748;28;21421;-75
2023/07/14 07:19:16;;;;;;;6.00;2.33;;;;;;;23.28;48.49;101542.13;4983357;28;20112;-69
2023/07/14 07:21:42;;;;;;;6.28;2.55;;;;;;;23.28;48.99;101542.13;4986094;28;20038;-76
2023/07/14 07:24:08;;;;;;;6.90;2.25;;;;;;;23.25;47.78;101537.09;4986655;28;20034;-74
2023/07/14 07:26:33;;;;;;;5.30;2.22;;;;;;;23.22;48.27;101535.53;4980936;28;20563;-73
2023/07/14 07:29:00;;;;;;;5.03;2.03;;;;;;;23.17;48.41;101533.31;4986352;28;20050;-72
2023/07/14 07:31:25;;;;;;;4.75;2.20;;;;;;;23.14;48.33;101530.94;4986595;28;20034;-73
2023/07/14 07:33:51;;;;;;;6.50;2.45;;;;;;;23.11;48.78;101533.03;4983966;28;20029;-75
2023/07/14 07:36:16;;;;;;;5.28;2.00;;;;;;;23.10;48.64;101539.34;4985826;28;20065;-75
2023/07/14 07:38:48;;;;;;;5.13;2.17;;;;;;;23.09;47.93;101532.34;4987093;28;20145;-75
2023/07/14 07:41:15;;;;;;;5.55;2.20;;;;;;;23.08;48.67;101530.66;4985220;28;20054;-72
2023/07/14 07:43:41;;;;;;;8.25;2.28;;;;;;;23.07;48.44;101528.97;4986679;28;20363;-73
2023/07/14 07:46:08;;;;;;;5.00;2.10;;;;;;;23.08;47.83;101539.50;4987621;28;20064;-72
2023/07/14 07:48:35;;;;;;;5.97;2.33;;;;;;;23.06;48.16;101529.94;4986797;28;20022;-74
2023/07/14 07:51:01;;;;;;;5.35;2.22;;;;;;;23.01;47.91;101525.03;4986733;28;20046;-73
2023/07/14 07:53:26;;;;;;;5.72;2.00;;;;;;;23.03;48.52;101532.88;4986923;28;20105;-71
2023/07/14 07:55:57;;;;;;;4.35;2.30;;;;;;;23.02;48.67;101532.03;4985339;28;20129;-81
2023/07/14 07:58:25;;;;;;;5.10;2.30;;;;;;;23.04;48.87;101526.59;4986469;28;20027;-77
2023/07/14 08:00:55;;;;;;;5.75;2.17;;;;;;;23.05;48.17;101521.13;4986694;28;20065;-73
2023/07/14 08:03:21;;;;;;;4.70;1.90;;;;;;;23.08;47.77;101522.69;4985895;28;20422;-76
2023/07/14 08:05:46;;;;;;;4.68;1.80;;;;;;;23.10;47.63;101515.44;4983993;28;20034;-75
2023/07/14 08:08:12;;;;;;;6.20;2.00;;;;;;;23.10;47.63;101513.59;4985024;28;20455;-74
2023/07/14 08:10:42;;;;;;;6.25;2.42;;;;;;;23.09;48.09;101505.75;4983897;28;20452;-74
2023/07/14 08:13:09;;;;;;;5.55;1.92;;;;;;;23.09;47.63;101519.06;4983834;28;20033;-76
2023/07/14 08:15:37;;;;;;;5.85;1.92;;;;;;;23.07;47.96;101519.16;4983469;28;20072;-74
2023/07/14 08:18:04;;;;;;;4.28;2.08;;;;;;;23.08;48.08;101518.22;4981820;28;20577;-74
2023/07/14 08:20:30;;;;;;;4.60;2.05;;;;;;;23.10;47.62;101512.75;4984397;28;20030;-72
2023/07/14 08:22:56;;;;;;;9.32;2.08;;;;;;;23.08;47.56;101507.59;4984562;28;20497;-76
2023/07/14 08:25:22;;;;;;;5.32;1.98;;;;;;;23.12;48.30;101511.63;4985604;28;20038;-73
2023/07/14 08:27:48;;;;;;;6.10;2.10;;;;;;;23.12;48.05;101511.63;4985472;28;20356;-75
2023/07/14 08:30:14;;;;;;;5.50;2.90;;;;;;;23.13;48.02;101508.00;4983867;28;20031;-75
2023/07/14 08:32:39;;;;;;;4.97;2.35;;;;;;;23.13;46.66;101500.03;4985226;28;20026;-73
2023/07/14 08:35:05;;;;;;;4.82;2.00;;;;;;;23.16;46.68;101509.50;4982516;28;20018;-78
2023/07/14 08:37:30;;;;;;;7.88;2.03;;;;;;;23.17;45.68;101509.38;4982994;28;20029;-73
2023/07/14 08:39:56;;;;;;;5.25;1.95;;;;;;;23.18;46.93;101518.22;4980697;28;20042;-76
2023/07/14 08:42:27;;;;;;;4.70;1.92;;;;;;;23.18;46.23;101512.88;4984855;28;20034;-72
2023/07/14 08:45:19;;;;;;;6.97;2.22;;;;;;;23.17;45.82;101504.06;4972365;28;20042;-72
2023/07/14 08:48:31;;;;;;;4.35;1.98;;;;;;;23.20;45.59;101512.75;4938053;28;20030;-74
2023/07/14 08:51:08;;;;;;;6.45;2.10;;;;;;;23.18;45.83;101497.78;4943532;29;21406;-70
2023/07/14 08:53:34;;;;;;;4.57;2.00;;;;;;;23.24;46.20;101498.16;4948564;29;20541;-76
2023/07/14 08:56:04;;;;;;;4.28;1.80;;;;;;;23.24;47.40;101506.16;4972606;28;20189;-75
2023/07/14 08:58:35;;;;;;;4.55;1.90;;;;;;;23.28;46.79;101499.56;4964854;28;20058;-74
2023/07/14 09:01:09;;;;;;;5.93;2.13;;;;;;;23.24;46.73;101491.06;4946771;28;20078;-71
2023/07/14 09:03:37;;;;;;;;;;;;;;;23.34;46.15;101491.84;4989081;28;20038;-70
2023/07/14 09:06:28;;;;;;;5.03;1.92;;;;;;;23.36;46.47;101484.56;4989024;28;19917;-73
2023/07/14 09:08:54;;;;;;;5.25;1.88;;;;;;;23.37;46.20;101482.78;4988055;28;20029;-73
2023/07/14 09:11:38;;;;;;;5.00;2.10;;;;;;;23.36;46.41;101487.22;4988096;28;20034;-71
2023/07/14 09:14:03;;;;;;;4.65;2.00;;;;;;;23.41;46.44;101478.00;4988863;28;20031;-77
2023/07/14 09:16:34;;;;;;;5.53;2.08;;;;;;;23.41;46.30;101467.34;4989012;28;20038;-74
2023/07/14 09:19:25;;;;;;;5.07;1.98;;;;;;;23.37;46.36;101464.16;4989092;28;21191;-74
2023/07/14 09:22:02;;;;;;;5.03;1.92;;;;;;;23.35;47.02;101469.63;4988738;28;20022;-79
2023/07/14 09:24:46;;;;;;;4.78;1.65;;;;;;;23.36;46.93;101478.41;4986351;28;20062;-71
2023/07/14 09:27:27;;;;;;;6.65;2.03;;;;;;;23.37;47.19;101461.50;4989269;28;20065;-75
2023/07/14 09:29:55;;;;;;;6.20;2.13;;;;;;;23.40;47.25;101468.31;4981156;28;20050;-75
2023/07/14 09:32:35;;;;;;;5.28;2.15;;;;;;;23.43;46.44;101471.56;4981430;28;20042;-71
2023/07/14 09:35:17;;;;;;;4.78;1.75;;;;;;;23.41;46.18;101462.84;4987435;28;20659;-71
2023/07/14 09:37:51;;;;;;;5.57;1.95;;;;;;;23.45;46.73;101458.94;4988295;28;20104;-74
2023/07/14 09:40:23;;;;;;;6.07;2.20;;;;;;;23.43;46.61;101457.41;4988713;28;20038;-76
2023/07/14 09:42:56;;;;;;;5.30;2.00;;;;;;;23.41;46.79;101457.53;4988081;28;20104;-74
2023/07/14 09:45:25;;;;;;;6.35;2.10;;;;;;;23.41;46.13;101444.25;4988061;28;20549;-72
2023/07/14 09:47:59;;;;;;;5.80;1.80;;;;;;;23.38;46.25;101441.88;4988405;28;20037;-74
2023/07/14 09:50:26;;;;;;;5.30;1.90;;;;;;;23.39;46.06;101445.38;4987049;28;20038;-73
2023/07/14 09:52:55;;;;;;;4.25;1.77;;;;;;;23.38;46.26;101435.72;4987566;28;20084;-73
2023/07/14 09:55:22;;;;;;;4.00;1.95;;;;;;;23.40;46.44;101436.41;4978642;28;20049;-74
2023/07/14 09:57:52;;;;;;;4.35;1.92;;;;;;;23.39;46.55;101448.03;4976787;28;20049;-73
2023/07/14 10:00:24;;;;;;;5.53;1.95;;;;;;;23.37;46.42;101440.22;4981235;28;20031;-73
2023/07/14 10:03:01;;;;;;;5.82;2.20;;;;;;;23.39;45.69;101440.06;4973893;28;20050;-73
2023/07/14 10:05:36;;;;;;;4.38;2.10;;;;;;;23.35;46.24;101432.38;4980103;28;20041;-76
2023/07/14 10:08:21;;;;;;;4.70;1.80;;;;;;;23.29;46.65;101419.66;4988362;28;20105;-75
2023/07/14 10:10:47;;;;;;;3.60;1.70;;;;;;;23.27;47.21;101418.13;4981538;28;20061;-71
2023/07/14 10:13:22;;;;;;;3.88;1.77;;;;;;;23.26;47.13;101408.47;4981827;28;20046;-71
2023/07/14 10:16:14;;;;;;;3.58;1.63;;;;;;;23.26;47.60;101401.34;4987611;28;20049;-70
2023/07/14 10:19:11;;;;;;;4.47;1.60;;;;;;;23.31;47.42;101398.25;4986995;28;20058;-70
2023/07/14 10:21:38;;;;;;;4.00;1.90;;;;;;;23.34;47.14;101396.13;4980491;28;20046;-71
2023/07/14 10:24:05;;;;;;;4.50;1.60;;;;;;;23.34;47.55;101396.13;4987575;28;20057;-70
2023/07/14 10:26:36;;;;;;;3.78;1.60;;;;;;;23.31;47.51;101388.44;4987294;28;20038;-71
2023/07/14 10:29:16;;;;;;;3.60;1.88;;;;;;;23.37;47.62;101392.34;4986472;28;20113;-72
2023/07/14 10:31:51;;;;;;;6.10;1.90;;;;;;;23.40;47.76;101386.72;4985345;28;20033;-71
2023/07/14 10:34:42;;;;;;;5.15;2.05;;;;;;;23.40;47.45;101383.22;4984331;28;20031;-71
2023/07/14 10:37:31;;;;;;;3.83;1.70;;;;;;;23.42;47.50;101371.44;4988265;28;20033;-72
2023/07/14 10:40:09;;;;;;;7.82;2.10;;;;;;;23.44;47.71;101371.31;4986806;28;20022;-71
2023/07/14 10:42:40;;;;;;;5.18;1.98;;;;;;;23.43;47.81;101356.31;4986381;28;20042;-71
2023/07/14 10:45:12;;;;;;;6.47;2.30;;;;;;;23.48;48.47;101367.34;4987547;28;20352;-69
2023/07/14 10:48:14;;;;;;;5.35;2.28;;;;;;;23.47;48.17;101355.88;4986736;28;20124;-72
2023/07/14 10:50:50;;;;;;;8.35;2.40;;;;;;;23.51;48.00;101351.09;4985155;28;20080;-73
2023/07/14 10:53:21;;;;;;;6.95;2.30;;;;;;;23.49;48.34;101345.09;4986844;28;20121;-73
2023/07/14 10:55:49;;;;;;;6.13;2.28;;;;;;;23.51;48.22;101351.09;4985253;28;20038;-70
2023/07/14 10:58:23;;;;;;;8.05;2.63;;;;;;;23.51;48.42;101349.28;4986495;28;20046;-71
2023/07/14 11:00:56;;;;;;;7.85;2.42;;;;;;;23.50;48.54;101352.94;4985088;28;20030;-71
2023/07/14 11:03:29;;;;;;;6.80;2.20;;;;;;;23.53;48.35;101349.16;4985418;28;20459;-70
2023/07/14 11:06:02;;;;;;;6.18;2.20;;;;;;;23.53;48.19;101343.81;4985509;28;20034;-70
2023/07/14 11:08:30;;;;;;;6.50;2.25;;;;;;;23.52;48.18;101337.66;4985863;28;20030;-71
2023/07/14 11:11:08;;;;;;;5.15;2.28;;;;;;;23.53;48.21;101331.34;4984107;28;20553;-71
2023/07/14 11:14:07;;;;;;;6.18;2.25;;;;;;;23.54;48.08;101327.72;4986873;28;20036;-72
2023/07/14 11:17:22;;;;;;;6.50;2.30;;;;;;;23.54;48.52;101297.59;4985648;28;20434;-71
2023/07/14 11:20:08;;;;;;;6.13;2.50;;;;;;;23.55;48.14;101302.78;4985922;28;20038;-70
2023/07/14 11:22:46;;;;;;;5.22;2.10;;;;;;;23.56;48.19;101308.94;4986008;28;20394;-74
2023/07/14 11:25:20;;;;;;;6.82;2.08;;;;;;;23.54;48.46;101297.59;4984984;28;20061;-72
2023/07/14 11:27:54;;;;;;;5.80;1.88;;;;;;;23.57;48.24;101302.63;4982734;28;20348;-72
2023/07/14 11:30:25;;;;;;;5.40;2.25;;;;;;;23.57;48.56;101296.47;4973343;28;20034;-72
2023/07/14 11:33:35;;;;;;;4.82;1.90;;;;;;;23.57;48.38;101301.78;4984680;28;20455;-70
2023/07/14 11:36:06;;;;;;;4.88;1.80;;;;;;;23.59;48.37;101298.00;4943898;29;20075;-73